Time;durP1;ratioP1;P1;durP2;ratioP2;P2;SDS_P1;SDS_P2;PMS_P1;PMS_P2;Temp;Humidity;BMP_temperature;BMP_pressure;BME280_temperature;BME280_humidity;BME280_pressure;Samples;Min_cycle;Max_cycle;Signal;HPM_P1;HPM_P2
2023/12/05 00:01:50;;;;;;;19.20;2.53;;;;;;;;;;5030774;28;20399;-41
2023/12/05 00:04:17;;;;;;;20.25;2.97;;;;;;;;;;5031048;28;20398;-43
2023/12/05 00:06:45;;;;;;;25.13;3.10;;;;;;;;;;5030008;28;20403;-45
2023/12/05 00:09:12;;;;;;;25.63;2.97;;;;;;;;;;5030850;28;20413;-42
2023/12/05 00:11:42;;;;;;;22.10;2.70;;;;;;;;;;5029430;28;20402;-43
2023/12/05 00:14:09;;;;;;;18.13;2.42;;;;;;;;;;5030778;28;20395;-44
2023/12/05 00:16:36;;;;;;;16.30;2.35;;;;;;;;;;5029959;28;20406;-44
2023/12/05 00:19:03;;;;;;;17.05;2.63;;;;;;;;;;5030260;28;20391;-44
2023/12/05 00:21:30;;;;;;;22.08;3.15;;;;;;;;;;5019647;28;20499;-41
2023/12/05 00:23:57;;;;;;;19.13;2.65;;;;;;;;;;5023674;28;20402;-41
2023/12/05 00:26:24;;;;;;;19.52;2.70;;;;;;;;;;5029966;28;20453;-43
2023/12/05 00:28:51;;;;;;;14.52;2.55;;;;;;;;;;5030326;28;20944;-42
2023/12/05 00:31:18;;;;;;;18.08;2.28;;;;;;;;;;5030730;28;20405;-42
2023/12/05 00:33:47;;;;;;;38.72;2.63;;;;;;;;;;5030239;28;20998;-42
2023/12/05 00:36:14;;;;;;;30.90;2.70;;;;;;;;;;5027985;28;20394;-42
2023/12/05 00:41:00;;;;;;;20.73;2.63;;;;;;;;;;5109909;27;20364;-49
2023/12/05 00:43:27;;;;;;;14.83;2.30;;;;;;;;;;5102926;28;20404;-50
2023/12/05 00:45:55;;;;;;;16.30;2.70;;;;;;;;;;5088438;28;20493;-53
2023/12/05 00:48:22;;;;;;;15.55;2.17;;;;;;;;;;5077293;28;20468;-52
2023/12/05 00:50:50;;;;;;;13.43;2.22;;;;;;;;;;5074046;28;20774;-52
2023/12/05 00:53:17;;;;;;;21.33;3.10;;;;;;;;;;5076603;28;20395;-48
2023/12/05 00:55:44;;;;;;;18.00;2.80;;;;;;;;;;5087737;28;20402;-49
2023/12/05 00:58:11;;;;;;;17.77;2.35;;;;;;;;;;5086615;28;20395;-50
2023/12/05 01:00:37;;;;;;;15.18;2.33;;;;;;;;;;5075685;28;20421;-49
2023/12/05 01:03:04;;;;;;;19.35;2.63;;;;;;;;;;5075677;28;20392;-46
2023/12/05 01:05:34;;;;;;;18.55;2.65;;;;;;;;;;5067085;28;20399;-47
2023/12/05 01:08:00;;;;;;;16.92;2.22;;;;;;;;;;5068658;28;20407;-51
2023/12/05 01:10:27;;;;;;;22.00;2.88;;;;;;;;;;5069043;28;21135;-52
2023/12/05 01:12:54;;;;;;;26.60;2.65;;;;;;;;;;5077458;28;20757;-58
2023/12/05 01:15:22;;;;;;;35.13;3.30;;;;;;;;;;5086556;28;20387;-54
2023/12/05 01:17:49;;;;;;;18.60;2.85;;;;;;;;;;5080212;28;20915;-54
2023/12/05 01:20:16;;;;;;;25.45;3.28;;;;;;;;;;5086424;28;20426;-48
2023/12/05 01:22:44;;;;;;;17.33;2.65;;;;;;;;;;5083817;28;20438;-48
2023/12/05 01:25:11;;;;;;;15.38;2.40;;;;;;;;;;5082014;28;20449;-47
2023/12/05 01:27:38;;;;;;;16.30;2.28;;;;;;;;;;5076444;28;20407;-48
2023/12/05 01:30:06;;;;;;;15.73;2.60;;;;;;;;;;5074456;28;20842;-56
2023/12/05 01:32:33;;;;;;;13.90;2.30;;;;;;;;;;5078634;28;20401;-47
2023/12/05 01:35:00;;;;;;;12.88;2.42;;;;;;;;;;5086125;28;20403;-54
2023/12/05 01:37:27;;;;;;;24.07;2.80;;;;;;;;;;5086537;28;20399;-48
2023/12/05 01:39:54;;;;;;;13.10;2.28;;;;;;;;;;5085523;28;20480;-50
2023/12/05 01:42:21;;;;;;;11.45;1.98;;;;;;;;;;5084564;28;20819;-51
2023/12/05 01:44:48;;;;;;;18.65;2.58;;;;;;;;;;5085611;28;20436;-50
2023/12/05 01:47:16;;;;;;;15.82;2.50;;;;;;;;;;5082309;28;20808;-47
2023/12/05 01:49:44;;;;;;;16.58;2.15;;;;;;;;;;5077025;28;20433;-48
2023/12/05 01:52:12;;;;;;;13.82;2.22;;;;;;;;;;5072847;28;20399;-50
2023/12/05 01:54:39;;;;;;;8.45;2.00;;;;;;;;;;5071300;28;20884;-51
2023/12/05 01:57:06;;;;;;;10.05;2.03;;;;;;;;;;5067616;28;20508;-52
2023/12/05 01:59:34;;;;;;;11.13;1.90;;;;;;;;;;5067192;28;20414;-54
2023/12/05 02:02:02;;;;;;;13.40;2.10;;;;;;;;;;5072432;28;20392;-55
2023/12/05 02:04:31;;;;;;;10.68;2.03;;;;;;;;;;5072471;28;20399;-56
2023/12/05 02:06:59;;;;;;;9.75;2.08;;;;;;;;;;5070899;28;20422;-49
2023/12/05 02:09:26;;;;;;;14.95;2.40;;;;;;;;;;5065256;28;20398;-51
2023/12/05 02:11:53;;;;;;;18.70;2.20;;;;;;;;;;5066248;28;20400;-56
2023/12/05 02:14:20;;;;;;;16.77;2.35;;;;;;;;;;5066316;28;20485;-56
2023/12/05 02:16:51;;;;;;;12.75;2.03;;;;;;;;;;5062798;28;20413;-48
2023/12/05 02:19:36;;;;;;;10.18;1.73;;;;;;;;;;5068050;28;20423;-53
2023/12/05 02:22:06;;;;;;;16.63;2.20;;;;;;;;;;5053089;28;20397;-51
2023/12/05 02:24:40;;;;;;;12.10;1.80;;;;;;;;;;5069116;28;20407;-47
2023/12/05 02:27:13;;;;;;;18.20;1.95;;;;;;;;;;5071377;28;20418;-54
2023/12/05 02:29:47;;;;;;;14.70;1.80;;;;;;;;;;5081698;28;20818;-47
2023/12/05 02:32:14;;;;;;;9.95;1.80;;;;;;;;;;5082325;28;20397;-46
2023/12/05 02:34:41;;;;;;;9.40;1.60;;;;;;;;;;5084209;28;20411;-46
2023/12/05 02:37:21;;;;;;;7.30;1.50;;;;;;;;;;5076274;28;20410;-46
2023/12/05 02:40:03;;;;;;;9.50;1.50;;;;;;;;;;5063801;28;20423;-47
2023/12/05 02:42:32;;;;;;;9.02;1.50;;;;;;;;;;5062124;28;20400;-47
2023/12/05 02:45:01;;;;;;;6.70;1.33;;;;;;;;;;5060939;28;20405;-47
2023/12/05 02:47:29;;;;;;;8.90;1.40;;;;;;;;;;5061278;28;21027;-48
2023/12/05 02:49:57;;;;;;;9.40;1.50;;;;;;;;;;5062399;28;20880;-53
2023/12/05 02:52:24;;;;;;;11.18;1.65;;;;;;;;;;5069178;28;20423;-47
2023/12/05 02:54:51;;;;;;;4.72;1.25;;;;;;;;;;5060682;28;20840;-44
2023/12/05 02:57:18;;;;;;;9.87;1.70;;;;;;;;;;5062336;28;20394;-45
2023/12/05 02:59:45;;;;;;;6.82;1.60;;;;;;;;;;5063444;28;20428;-47
2023/12/05 03:02:12;;;;;;;9.65;1.50;;;;;;;;;;5071115;28;20384;-47
2023/12/05 03:04:39;;;;;;;8.90;1.42;;;;;;;;;;5071662;28;20376;-46
2023/12/05 03:07:06;;;;;;;4.93;1.50;;;;;;;;;;5071843;28;20461;-48
2023/12/05 03:09:33;;;;;;;7.50;1.43;;;;;;;;;;5071661;28;20375;-47
2023/12/05 03:12:00;;;;;;;6.03;1.40;;;;;;;;;;5071082;28;20888;-48
2023/12/05 03:14:26;;;;;;;6.75;1.20;;;;;;;;;;5069652;28;20461;-47
2023/12/05 03:16:53;;;;;;;7.93;1.25;;;;;;;;;;5071566;28;20401;-52
2023/12/05 03:19:20;;;;;;;5.78;1.33;;;;;;;;;;5071692;28;20442;-53
2023/12/05 03:21:47;;;;;;;6.83;1.50;;;;;;;;;;5071136;28;20407;-55
2023/12/05 03:24:14;;;;;;;6.18;1.10;;;;;;;;;;5071529;28;20430;-48
2023/12/05 03:26:41;;;;;;;5.80;1.27;;;;;;;;;;5071591;28;20383;-48
2023/12/05 03:29:08;;;;;;;5.75;1.25;;;;;;;;;;5071394;28;20477;-50
2023/12/05 03:31:36;;;;;;;5.18;1.30;;;;;;;;;;5071037;28;20431;-52
2023/12/05 03:34:03;;;;;;;3.95;1.30;;;;;;;;;;5070822;28;20396;-56
2023/12/05 03:36:30;;;;;;;5.82;1.20;;;;;;;;;;5071226;28;20979;-57
2023/12/05 03:38:57;;;;;;;7.38;1.58;;;;;;;;;;5069508;28;20423;-57
2023/12/05 03:41:25;;;;;;;7.43;1.40;;;;;;;;;;5070667;28;20399;-50
2023/12/05 03:43:52;;;;;;;7.03;1.20;;;;;;;;;;5068229;28;20531;-56
2023/12/05 03:46:19;;;;;;;4.32;1.00;;;;;;;;;;5070654;28;20473;-53
2023/12/05 03:48:46;;;;;;;2.97;1.02;;;;;;;;;;5070459;28;20788;-56
2023/12/05 03:51:13;;;;;;;5.55;1.05;;;;;;;;;;5070954;28;20399;-52
2023/12/05 03:53:40;;;;;;;5.32;1.00;;;;;;;;;;5070957;28;20383;-59
2023/12/05 03:56:08;;;;;;;3.40;1.00;;;;;;;;;;5070910;28;20384;-55
2023/12/05 03:58:34;;;;;;;7.27;1.03;;;;;;;;;;5070954;28;20388;-58
2023/12/05 04:01:01;;;;;;;3.90;0.90;;;;;;;;;;5069476;28;20730;-59
2023/12/05 04:03:28;;;;;;;5.25;1.05;;;;;;;;;;5069452;28;20873;-56
2023/12/05 04:05:56;;;;;;;4.32;1.15;;;;;;;;;;5070911;28;20525;-53
2023/12/05 04:08:22;;;;;;;5.60;1.30;;;;;;;;;;5070604;28;20403;-56
2023/12/05 04:10:49;;;;;;;4.95;1.10;;;;;;;;;;5070520;28;20394;-49
2023/12/05 04:13:16;;;;;;;7.05;1.23;;;;;;;;;;5070630;28;20399;-46
2023/12/05 04:15:43;;;;;;;4.38;1.15;;;;;;;;;;5070616;28;20494;-50
2023/12/05 04:18:10;;;;;;;5.30;1.23;;;;;;;;;;5070631;28;20391;-48
2023/12/05 04:20:37;;;;;;;4.95;1.10;;;;;;;;;;5070498;28;20418;-50
2023/12/05 04:23:04;;;;;;;3.47;1.00;;;;;;;;;;5070421;28;20449;-52
2023/12/05 04:25:31;;;;;;;5.40;1.13;;;;;;;;;;5070606;28;20379;-51
2023/12/05 04:27:58;;;;;;;3.70;1.00;;;;;;;;;;5070255;28;20408;-53
2023/12/05 04:30:25;;;;;;;4.97;1.20;;;;;;;;;;5070481;28;20384;-47
2023/12/05 04:32:52;;;;;;;4.20;1.10;;;;;;;;;;5070594;28;20410;-46
2023/12/05 04:35:22;;;;;;;4.57;1.25;;;;;;;;;;5070468;28;20386;-48
2023/12/05 04:37:49;;;;;;;4.78;1.35;;;;;;;;;;5070461;28;20538;-48
2023/12/05 04:40:16;;;;;;;4.05;1.02;;;;;;;;;;5070103;28;20407;-48
2023/12/05 04:42:43;;;;;;;5.90;1.07;;;;;;;;;;5070494;28;20903;-46
2023/12/05 04:45:10;;;;;;;5.07;1.10;;;;;;;;;;5070407;28;20380;-47
2023/12/05 04:47:37;;;;;;;4.97;1.30;;;;;;;;;;5070382;28;20407;-47
2023/12/05 04:50:04;;;;;;;3.20;1.10;;;;;;;;;;5070403;28;20398;-45
2023/12/05 04:52:31;;;;;;;4.38;0.95;;;;;;;;;;5070372;28;20741;-47
2023/12/05 04:54:58;;;;;;;3.92;1.00;;;;;;;;;;5070351;28;20392;-49
2023/12/05 04:57:25;;;;;;;3.50;1.00;;;;;;;;;;5070302;28;20388;-48
2023/12/05 04:59:52;;;;;;;3.97;1.00;;;;;;;;;;5070003;28;20456;-47
2023/12/05 05:02:19;;;;;;;3.17;0.90;;;;;;;;;;5070204;28;20410;-46
2023/12/05 05:04:46;;;;;;;2.75;0.90;;;;;;;;;;5070248;28;20475;-47
2023/12/05 05:07:13;;;;;;;3.67;0.98;;;;;;;;;;5070326;28;20395;-49
2023/12/05 05:09:41;;;;;;;6.22;1.20;;;;;;;;;;5070178;28;20458;-46
2023/12/05 05:12:11;;;;;;;3.67;0.90;;;;;;;;;;5070052;28;20387;-46
2023/12/05 05:14:38;;;;;;;7.22;1.10;;;;;;;;;;5070120;28;20465;-46
2023/12/05 05:17:08;;;;;;;3.83;0.90;;;;;;;;;;5070023;28;20418;-45
2023/12/05 05:19:35;;;;;;;4.47;1.30;;;;;;;;;;5070015;28;20422;-46
2023/12/05 05:22:02;;;;;;;3.17;1.00;;;;;;;;;;5070201;28;20398;-48
2023/12/05 05:24:29;;;;;;;3.70;1.03;;;;;;;;;;5069981;28;20790;-48
2023/12/05 05:26:56;;;;;;;3.67;1.05;;;;;;;;;;5072444;28;20437;-52
2023/12/05 05:29:23;;;;;;;2.87;0.97;;;;;;;;;;5073589;28;20392;-45
2023/12/05 05:31:50;;;;;;;4.10;0.90;;;;;;;;;;5073713;28;20445;-51
2023/12/05 05:34:17;;;;;;;2.30;0.90;;;;;;;;;;5073665;28;20380;-46
2023/12/05 05:36:43;;;;;;;3.85;1.00;;;;;;;;;;5073679;28;20388;-46
2023/12/05 05:39:10;;;;;;;3.30;0.90;;;;;;;;;;5073226;28;20404;-46
2023/12/05 05:41:37;;;;;;;2.80;0.90;;;;;;;;;;5073531;28;20379;-46
2023/12/05 05:44:04;;;;;;;3.03;1.10;;;;;;;;;;5073494;28;20372;-46
2023/12/05 05:46:31;;;;;;;5.28;1.02;;;;;;;;;;5073481;28;20392;-51
2023/12/05 05:48:58;;;;;;;4.30;1.07;;;;;;;;;;5073375;28;20379;-51
2023/12/05 05:51:26;;;;;;;4.28;0.90;;;;;;;;;;5073321;28;20384;-55
2023/12/05 05:53:54;;;;;;;2.35;0.82;;;;;;;;;;5073284;28;20375;-49
2023/12/05 05:56:21;;;;;;;2.73;1.00;;;;;;;;;;5073158;28;20474;-55
2023/12/05 05:58:48;;;;;;;6.70;1.15;;;;;;;;;;5073144;28;20383;-50
2023/12/05 06:01:15;;;;;;;3.03;0.75;;;;;;;;;;5065170;28;20407;-50
2023/12/05 06:03:42;;;;;;;3.03;1.00;;;;;;;;;;5053475;28;20443;-51
2023/12/05 06:06:10;;;;;;;5.65;0.98;;;;;;;;;;5053087;28;20382;-51
2023/12/05 06:08:37;;;;;;;6.57;0.88;;;;;;;;;;5052969;28;20408;-50
2023/12/05 06:11:04;;;;;;;6.13;0.98;;;;;;;;;;5053020;28;20427;-53
2023/12/05 06:13:31;;;;;;;5.37;1.03;;;;;;;;;;5053010;28;20524;-51
2023/12/05 06:15:58;;;;;;;14.00;1.20;;;;;;;;;;5052920;28;20803;-52
2023/12/05 06:18:25;;;;;;;6.13;1.10;;;;;;;;;;5052841;28;20385;-51
2023/12/05 06:20:54;;;;;;;6.97;1.00;;;;;;;;;;5052771;28;20439;-51
2023/12/05 06:23:21;;;;;;;7.32;0.90;;;;;;;;;;5052753;28;20386;-50
2023/12/05 06:25:48;;;;;;;6.47;1.10;;;;;;;;;;5052769;28;20384;-53
2023/12/05 06:28:15;;;;;;;6.80;1.00;;;;;;;;;;5052711;28;20381;-50
2023/12/05 06:30:48;;;;;;;4.70;1.03;;;;;;;;;;5052551;28;20882;-51
2023/12/05 06:33:16;;;;;;;6.72;1.10;;;;;;;;;;5052616;28;20465;-50
2023/12/05 06:35:43;;;;;;;3.70;0.93;;;;;;;;;;5052589;28;20527;-53
2023/12/05 06:38:09;;;;;;;4.60;1.40;;;;;;;;;;5052313;28;20617;-51
2023/12/05 06:40:37;;;;;;;9.50;1.40;;;;;;;;;;5052088;28;20474;-51
2023/12/05 06:43:03;;;;;;;3.58;0.85;;;;;;;;;;5052470;28;20378;-52
2023/12/05 06:45:30;;;;;;;3.78;1.20;;;;;;;;;;5052408;28;21054;-50
2023/12/05 06:47:57;;;;;;;5.00;0.95;;;;;;;;;;5052301;28;20982;-51
2023/12/05 06:50:24;;;;;;;3.85;1.08;;;;;;;;;;5052396;28;20389;-50
2023/12/05 06:52:51;;;;;;;2.70;0.90;;;;;;;;;;5052232;28;20459;-51
2023/12/05 06:55:18;;;;;;;3.63;0.82;;;;;;;;;;5052045;28;20389;-52
2023/12/05 06:57:45;;;;;;;4.68;1.17;;;;;;;;;;5052077;28;20451;-50
2023/12/05 07:00:13;;;;;;;3.17;0.88;;;;;;;;;;5052094;28;20455;-50
2023/12/05 07:02:40;;;;;;;2.70;0.77;;;;;;;;;;5051992;28;20859;-51
2023/12/05 07:05:08;;;;;;;4.45;1.08;;;;;;;;;;5052074;28;20397;-50
2023/12/05 07:07:35;;;;;;;3.53;0.80;;;;;;;;;;5051839;28;20392;-50
2023/12/05 07:10:02;;;;;;;4.07;0.80;;;;;;;;;;5051922;28;20432;-51
2023/12/05 07:12:30;;;;;;;3.95;1.05;;;;;;;;;;5051993;28;20381;-50
2023/12/05 07:14:57;;;;;;;3.42;1.00;;;;;;;;;;5051678;28;20751;-49
2023/12/05 07:17:24;;;;;;;3.33;1.00;;;;;;;;;;5051711;28;20859;-50
2023/12/05 07:19:50;;;;;;;3.28;0.90;;;;;;;;;;5051618;28;20417;-51
2023/12/05 07:22:17;;;;;;;3.78;1.05;;;;;;;;;;5051749;28;20393;-50
2023/12/05 07:24:44;;;;;;;5.20;1.00;;;;;;;;;;5051678;28;20377;-49
2023/12/05 07:27:13;;;;;;;3.25;1.05;;;;;;;;;;5051582;28;20450;-49
2023/12/05 07:29:39;;;;;;;3.25;0.95;;;;;;;;;;5051442;28;20381;-49
2023/12/05 07:32:06;;;;;;;2.97;0.80;;;;;;;;;;5051547;28;20396;-50
2023/12/05 07:34:33;;;;;;;3.40;0.95;;;;;;;;;;5051343;28;20385;-54
2023/12/05 07:37:00;;;;;;;3.13;1.03;;;;;;;;;;5051574;28;20862;-50
2023/12/05 07:39:27;;;;;;;4.15;0.95;;;;;;;;;;5051053;28;20440;-51
2023/12/05 07:41:54;;;;;;;4.55;0.90;;;;;;;;;;5051342;28;20385;-50
2023/12/05 07:44:21;;;;;;;3.80;0.93;;;;;;;;;;5051109;28;20377;-51
2023/12/05 07:46:48;;;;;;;3.22;0.90;;;;;;;;;;5051331;28;20394;-54
2023/12/05 07:49:15;;;;;;;3.35;1.00;;;;;;;;;;5050639;28;20503;-54
2023/12/05 07:51:42;;;;;;;4.70;1.00;;;;;;;;;;5051129;28;20871;-54
2023/12/05 07:54:09;;;;;;;5.00;0.93;;;;;;;;;;5051059;28;20476;-53
2023/12/05 07:56:36;;;;;;;3.28;1.00;;;;;;;;;;5051123;28;20465;-52
2023/12/05 07:59:03;;;;;;;4.05;0.80;;;;;;;;;;5050824;28;20378;-50
2023/12/05 08:01:30;;;;;;;3.00;0.93;;;;;;;;;;5051040;28;20875;-53
2023/12/05 08:03:57;;;;;;;3.33;0.80;;;;;;;;;;5050903;28;20382;-50
2023/12/05 08:06:25;;;;;;;4.05;1.00;;;;;;;;;;5050988;28;20439;-51
2023/12/05 08:08:52;;;;;;;3.43;0.80;;;;;;;;;;5050842;28;20385;-50
2023/12/05 08:11:19;;;;;;;3.65;0.90;;;;;;;;;;5050866;28;20386;-51
2023/12/05 08:13:47;;;;;;;3.53;0.90;;;;;;;;;;5049399;28;20394;-52
2023/12/05 08:16:14;;;;;;;3.83;0.90;;;;;;;;;;5050993;28;20389;-52
2023/12/05 08:18:41;;;;;;;3.17;0.88;;;;;;;;;;5050676;28;20390;-49
2023/12/05 08:21:08;;;;;;;3.80;0.80;;;;;;;;;;5050661;28;20459;-51
2023/12/05 08:23:35;;;;;;;3.03;0.90;;;;;;;;;;5049364;28;20810;-51
2023/12/05 08:26:02;;;;;;;3.20;0.90;;;;;;;;;;5050631;28;20411;-50
2023/12/05 08:28:29;;;;;;;3.97;1.00;;;;;;;;;;5050580;28;20404;-51
2023/12/05 08:30:56;;;;;;;5.10;0.95;;;;;;;;;;5050687;28;20389;-52
2023/12/05 08:33:23;;;;;;;4.43;1.00;;;;;;;;;;5050405;28;20404;-49
2023/12/05 08:35:50;;;;;;;4.30;1.00;;;;;;;;;;5050515;28;20824;-50
2023/12/05 08:38:17;;;;;;;2.83;0.93;;;;;;;;;;5050511;28;20435;-50
2023/12/05 08:40:44;;;;;;;2.63;0.90;;;;;;;;;;5050246;28;20440;-51
2023/12/05 08:43:11;;;;;;;5.47;0.90;;;;;;;;;;5050445;28;20874;-51
2023/12/05 08:45:38;;;;;;;2.38;0.77;;;;;;;;;;5050400;28;20377;-51
2023/12/05 08:48:05;;;;;;;3.35;0.90;;;;;;;;;;5050322;28;20443;-50
2023/12/05 08:50:33;;;;;;;2.97;0.90;;;;;;;;;;5050517;28;20870;-50
2023/12/05 08:53:00;;;;;;;3.53;1.10;;;;;;;;;;5050332;28;20438;-50
2023/12/05 08:55:27;;;;;;;4.50;1.00;;;;;;;;;;5050436;28;20385;-50
2023/12/05 08:57:53;;;;;;;3.88;0.82;;;;;;;;;;5050283;28;20894;-51
2023/12/05 09:00:20;;;;;;;3.47;0.88;;;;;;;;;;5050197;28;20424;-51
2023/12/05 09:02:47;;;;;;;3.28;0.90;;;;;;;;;;5054108;28;20412;-49
2023/12/05 09:05:14;;;;;;;3.13;0.90;;;;;;;;;;5054378;28;20886;-52
2023/12/05 09:07:41;;;;;;;2.10;0.90;;;;;;;;;;5054269;28;20806;-50
2023/12/05 09:10:08;;;;;;;5.63;1.40;;;;;;;;;;5054276;28;20381;-50
2023/12/05 09:12:35;;;;;;;4.38;1.08;;;;;;;;;;5054165;28;20431;-50
2023/12/05 09:15:02;;;;;;;2.08;0.80;;;;;;;;;;5054006;28;20382;-52
2023/12/05 09:17:29;;;;;;;3.63;0.90;;;;;;;;;;5054050;28;20419;-50
2023/12/05 09:19:56;;;;;;;2.83;0.90;;;;;;;;;;5053965;28;20516;-50
2023/12/05 09:22:23;;;;;;;2.77;0.90;;;;;;;;;;5053889;28;20388;-51
2023/12/05 09:24:50;;;;;;;3.75;1.00;;;;;;;;;;5053888;28;20460;-49
2023/12/05 09:27:17;;;;;;;4.97;0.90;;;;;;;;;;5053698;28;20389;-50
2023/12/05 09:29:44;;;;;;;4.53;1.00;;;;;;;;;;5053752;28;20389;-50
2023/12/05 09:32:11;;;;;;;3.75;0.90;;;;;;;;;;5053822;28;20378;-52
2023/12/05 09:34:38;;;;;;;5.30;1.05;;;;;;;;;;5053815;28;20374;-48
2023/12/05 09:37:05;;;;;;;3.47;0.90;;;;;;;;;;5072641;28;20411;-48
2023/12/05 09:39:32;;;;;;;2.53;0.80;;;;;;;;;;5073678;28;20480;-49
2023/12/05 09:42:05;;;;;;;3.97;1.00;;;;;;;;;;5073439;28;20429;-49
2023/12/05 09:44:35;;;;;;;3.00;0.90;;;;;;;;;;5073118;28;20423;-52
2023/12/05 09:47:06;;;;;;;4.53;1.00;;;;;;;;;;5071331;28;20443;-50
2023/12/05 09:49:33;;;;;;;2.63;0.80;;;;;;;;;;5073332;28;20400;-48
2023/12/05 09:52:01;;;;;;;5.40;0.93;;;;;;;;;;5073163;28;20488;-48
2023/12/05 09:54:28;;;;;;;3.92;1.05;;;;;;;;;;5073307;28;20787;-49
2023/12/05 09:56:55;;;;;;;4.73;0.80;;;;;;;;;;5072924;28;20833;-49
2023/12/05 09:59:34;;;;;;;6.88;1.00;;;;;;;;;;5074836;28;20453;-50
2023/12/05 10:02:25;;;;;;;6.80;1.17;;;;;;;;;;5075840;28;20402;-48
2023/12/05 10:08:32;;;;;;;11.82;1.23;;;;;;;;;;5056004;28;20404;-49
2023/12/05 10:11:11;;;;;;;8.32;1.10;;;;;;;;;;5063349;28;20505;-49
2023/12/05 10:13:39;;;;;;;8.80;1.27;;;;;;;;;;5059580;28;20402;-49
2023/12/05 10:16:07;;;;;;;8.80;1.30;;;;;;;;;;5060246;28;20403;-45
2023/12/05 10:18:39;;;;;;;14.25;1.75;;;;;;;;;;5062674;28;20446;-45
2023/12/05 10:21:07;;;;;;;10.18;1.67;;;;;;;;;;5059596;28;20794;-45
2023/12/05 10:23:34;;;;;;;11.98;1.40;;;;;;;;;;5060886;28;20495;-44
2023/12/05 10:26:01;;;;;;;13.82;1.40;;;;;;;;;;5058347;28;20444;-42
2023/12/05 10:28:28;;;;;;;5.83;1.20;;;;;;;;;;5062159;28;20482;-43
2023/12/05 10:30:56;;;;;;;7.65;1.60;;;;;;;;;;5063242;28;20397;-44
2023/12/05 10:33:23;;;;;;;9.43;1.40;;;;;;;;;;5060263;28;20393;-41
2023/12/05 10:35:49;;;;;;;5.80;1.50;;;;;;;;;;5062175;28;20411;-37
2023/12/05 10:38:20;;;;;;;8.27;1.52;;;;;;;;;;5064178;28;20796;-44
2023/12/05 10:40:57;;;;;;;9.13;1.50;;;;;;;;;;5063322;28;20424;-49
2023/12/05 10:43:25;;;;;;;9.38;1.42;;;;;;;;;;5071819;28;20387;-45
2023/12/05 10:45:52;;;;;;;5.28;1.25;;;;;;;;;;5070833;28;20392;-45
2023/12/05 10:48:19;;;;;;;8.55;1.70;;;;;;;;;;5062568;28;20429;-45
2023/12/05 10:50:51;;;;;;;7.03;1.60;;;;;;;;;;5063095;28;20401;-46
2023/12/05 10:53:18;;;;;;;7.60;1.77;;;;;;;;;;5059181;28;20400;-48
2023/12/05 10:55:45;;;;;;;12.90;1.67;;;;;;;;;;5061087;28;20902;-47
2023/12/05 10:58:14;;;;;;;9.63;1.52;;;;;;;;;;5062322;28;20396;-46
2023/12/05 11:00:41;;;;;;;10.07;1.67;;;;;;;;;;5060950;28;20450;-45
2023/12/05 11:03:08;;;;;;;5.18;1.35;;;;;;;;;;5059207;28;20399;-45
2023/12/05 11:05:36;;;;;;;6.38;1.75;;;;;;;;;;5062090;28;20479;-47
2023/12/05 11:08:04;;;;;;;6.70;1.52;;;;;;;;;;5060605;28;20390;-45
2023/12/05 11:10:31;;;;;;;9.18;1.80;;;;;;;;;;5064471;28;20401;-45
2023/12/05 11:13:02;;;;;;;7.07;1.80;;;;;;;;;;5058589;28;20397;-46
2023/12/05 11:15:31;;;;;;;12.13;1.85;;;;;;;;;;5060780;28;20427;-42
2023/12/05 11:18:05;;;;;;;19.95;1.52;;;;;;;;;;5060046;28;20883;-42
2023/12/05 11:20:37;;;;;;;11.90;1.95;;;;;;;;;;5075106;28;20417;-50
2023/12/05 11:23:07;;;;;;;10.80;1.73;;;;;;;;;;5089866;28;20394;-47
2023/12/05 11:25:34;;;;;;;7.78;1.58;;;;;;;;;;5090335;28;20408;-48
2023/12/05 11:28:19;;;;;;;15.75;1.90;;;;;;;;;;5091196;28;21191;-47
2023/12/05 11:31:04;;;;;;;10.57;2.17;;;;;;;;;;5077369;28;20391;-47
2023/12/05 11:33:54;;;;;;;16.42;2.10;;;;;;;;;;5068403;28;20392;-44
2023/12/05 11:36:40;;;;;;;68.57;7.53;;;;;;;;;;5050317;28;20885;-42
2023/12/05 11:39:07;;;;;;;28.50;2.50;;;;;;;;;;5070040;28;20446;-46
2023/12/05 11:41:34;;;;;;;18.85;2.05;;;;;;;;;;5072157;28;20376;-47
2023/12/05 11:44:13;;;;;;;26.80;2.50;;;;;;;;;;5087950;28;20398;-46
2023/12/05 11:46:43;;;;;;;15.57;1.90;;;;;;;;;;5089516;28;20421;-47
2023/12/05 11:49:10;;;;;;;20.77;2.10;;;;;;;;;;5089477;28;20390;-53
2023/12/05 11:51:38;;;;;;;211.52;15.77;;;;;;;;;;5090516;28;20398;-55
2023/12/05 11:54:08;;;;;;;153.98;11.07;;;;;;;;;;5090775;28;20398;-56
2023/12/05 11:56:35;;;;;;;140.75;9.75;;;;;;;;;;5089268;28;20390;-55
2023/12/05 11:59:28;;;;;;;144.77;10.35;;;;;;;;;;5090808;28;20416;-57
2023/12/05 12:01:55;;;;;;;105.38;9.20;;;;;;;;;;5088999;28;20413;-51
2023/12/05 12:04:23;;;;;;;109.25;9.70;;;;;;;;;;5091031;28;20406;-50
2023/12/05 12:06:51;;;;;;;85.67;7.73;;;;;;;;;;5089123;28;20428;-49
2023/12/05 12:09:18;;;;;;;64.35;6.20;;;;;;;;;;5090927;28;20385;-48
2023/12/05 12:11:45;;;;;;;50.72;5.43;;;;;;;;;;5090880;28;20721;-48
2023/12/05 12:14:13;;;;;;;50.28;5.10;;;;;;;;;;5090576;28;20949;-49
2023/12/05 12:16:41;;;;;;;26.80;3.38;;;;;;;;;;5089349;28;20807;-49
2023/12/05 12:19:15;;;;;;;27.70;3.10;;;;;;;;;;5090359;28;20393;-48
2023/12/05 12:21:43;;;;;;;25.15;2.90;;;;;;;;;;5090862;28;20382;-48
2023/12/05 12:24:18;;;;;;;23.17;3.20;;;;;;;;;;5090829;28;20416;-48
2023/12/05 12:26:58;;;;;;;23.27;2.60;;;;;;;;;;5090781;28;20460;-47
2023/12/05 12:29:26;;;;;;;21.08;2.42;;;;;;;;;;5090766;28;20499;-47
2023/12/05 12:32:04;;;;;;;18.88;2.30;;;;;;;;;;5090805;28;20459;-49
2023/12/05 12:34:31;;;;;;;16.80;2.20;;;;;;;;;;5090445;28;20386;-47
2023/12/05 12:36:58;;;;;;;11.20;1.90;;;;;;;;;;5090491;28;20397;-48
2023/12/05 12:39:33;;;;;;;14.35;2.22;;;;;;;;;;5090302;28;20413;-47
2023/12/05 12:42:00;;;;;;;15.70;2.00;;;;;;;;;;5090556;28;20389;-48
2023/12/05 12:44:28;;;;;;;17.85;2.28;;;;;;;;;;5090682;28;20460;-48
2023/12/05 12:46:56;;;;;;;16.17;2.47;;;;;;;;;;5090800;28;20758;-47
2023/12/05 12:49:24;;;;;;;22.30;2.53;;;;;;;;;;5090643;28;20381;-48
2023/12/05 12:51:51;;;;;;;22.23;3.05;;;;;;;;;;5090559;28;20743;-47
2023/12/05 12:54:18;;;;;;;22.87;2.83;;;;;;;;;;5090582;28;20725;-49
2023/12/05 12:56:45;;;;;;;22.75;2.65;;;;;;;;;;5090505;28;20436;-47
2023/12/05 12:59:13;;;;;;;21.75;2.63;;;;;;;;;;5090382;28;20390;-47
2023/12/05 13:01:40;;;;;;;16.13;2.30;;;;;;;;;;5090530;28;20386;-47
2023/12/05 13:04:10;;;;;;;18.23;2.83;;;;;;;;;;5090489;28;20786;-47
2023/12/05 13:06:38;;;;;;;14.40;2.40;;;;;;;;;;5090416;28;20461;-47
2023/12/05 13:09:12;;;;;;;21.33;2.53;;;;;;;;;;5090323;28;20378;-47
2023/12/05 13:11:42;;;;;;;15.40;2.28;;;;;;;;;;5090302;28;20386;-49
2023/12/05 13:14:10;;;;;;;16.77;2.27;;;;;;;;;;5089346;28;20747;-47
2023/12/05 13:16:44;;;;;;;13.55;2.20;;;;;;;;;;5090394;28;20469;-47
2023/12/05 13:19:22;;;;;;;16.00;2.22;;;;;;;;;;5090233;28;20473;-49
2023/12/05 13:21:49;;;;;;;11.52;1.77;;;;;;;;;;5090237;28;20398;-48
2023/12/05 13:24:16;;;;;;;15.18;2.13;;;;;;;;;;5090297;28;20371;-47
2023/12/05 13:26:43;;;;;;;10.68;1.73;;;;;;;;;;5090127;28;20389;-49
2023/12/05 13:29:10;;;;;;;10.90;1.83;;;;;;;;;;5090170;28;20785;-48
2023/12/05 13:31:37;;;;;;;9.23;1.63;;;;;;;;;;5090079;28;20394;-47
2023/12/05 13:34:04;;;;;;;8.82;1.70;;;;;;;;;;5090195;28;20459;-47
2023/12/05 13:36:32;;;;;;;53.33;4.05;;;;;;;;;;5090135;28;20370;-48
2023/12/05 13:39:02;;;;;;;29.97;3.10;;;;;;;;;;5089683;28;20406;-47
2023/12/05 13:41:29;;;;;;;18.15;2.38;;;;;;;;;;5090203;28;20382;-46
2023/12/05 13:43:56;;;;;;;16.52;2.20;;;;;;;;;;5090101;28;20374;-46
2023/12/05 13:46:23;;;;;;;12.38;1.80;;;;;;;;;;5090156;28;20385;-48
2023/12/05 13:48:50;;;;;;;9.55;2.33;;;;;;;;;;5093715;28;20386;-46
2023/12/05 13:51:17;;;;;;;11.50;1.83;;;;;;;;;;5093737;28;20382;-46
2023/12/05 13:53:44;;;;;;;12.18;2.03;;;;;;;;;;5093589;28;20393;-48
2023/12/05 13:56:11;;;;;;;10.60;1.70;;;;;;;;;;5090736;28;20461;-47
2023/12/05 13:58:38;;;;;;;10.30;2.00;;;;;;;;;;5072332;28;20402;-46
2023/12/05 14:01:06;;;;;;;12.37;2.30;;;;;;;;;;5072249;28;20438;-48
2023/12/05 14:03:33;;;;;;;12.38;2.47;;;;;;;;;;5073134;28;20383;-49
2023/12/05 14:06:00;;;;;;;13.27;2.15;;;;;;;;;;5068077;28;20407;-46
2023/12/05 14:08:28;;;;;;;10.85;2.28;;;;;;;;;;5064041;28;20404;-50
2023/12/05 14:10:55;;;;;;;16.13;2.60;;;;;;;;;;5072211;28;20403;-49
2023/12/05 14:13:22;;;;;;;12.00;2.00;;;;;;;;;;5072846;28;20410;-46
2023/12/05 14:15:49;;;;;;;15.75;2.30;;;;;;;;;;5072554;28;20399;-50
2023/12/05 14:18:16;;;;;;;9.63;1.70;;;;;;;;;;5072571;28;20893;-48
2023/12/05 14:20:43;;;;;;;13.30;1.92;;;;;;;;;;5072235;28;20420;-47
2023/12/05 14:23:10;;;;;;;11.63;2.00;;;;;;;;;;5072730;28;20409;-48
2023/12/05 14:25:37;;;;;;;9.25;1.77;;;;;;;;;;5072472;28;20508;-46
2023/12/05 14:28:05;;;;;;;10.13;1.60;;;;;;;;;;5072322;28;20407;-47
2023/12/05 14:30:32;;;;;;;7.30;1.48;;;;;;;;;;5072160;28;20415;-46
2023/12/05 14:32:59;;;;;;;8.43;1.30;;;;;;;;;;5072474;28;20408;-44
2023/12/05 14:35:26;;;;;;;5.60;1.30;;;;;;;;;;5067696;28;20412;-45
2023/12/05 14:37:53;;;;;;;6.32;1.27;;;;;;;;;;5060893;28;20480;-48
2023/12/05 14:40:20;;;;;;;4.82;1.25;;;;;;;;;;5068418;28;20451;-49
2023/12/05 14:42:48;;;;;;;5.00;1.15;;;;;;;;;;5072163;28;20415;-45
2023/12/05 14:45:15;;;;;;;5.32;1.27;;;;;;;;;;5072135;28;20431;-45
2023/12/05 14:47:43;;;;;;;4.22;1.00;;;;;;;;;;5072009;28;20951;-46
2023/12/05 14:50:12;;;;;;;3.65;0.88;;;;;;;;;;5071792;28;20409;-45